sensor_id;sensor_type;location;lat;lon;timestamp;temperature;humidity
22676;DHT22;12521;43.310;21.876;2023-02-25T00:01:05;9.6;96.0
22676;DHT22;12521;43.310;21.876;2023-02-25T00:05:44;9.6;96.0
22676;DHT22;12521;43.310;21.876;2023-02-25T00:10:21;9.6;96.0
22676;DHT22;12521;43.310;21.876;2023-02-25T00:14:57;9.6;96.0
22676;DHT22;12521;43.310;21.876;2023-02-25T00:19:33;9.6;96.0
22676;DHT22;12521;43.310;21.876;2023-02-25T00:24:09;9.6;96.0
22676;DHT22;12521;43.310;21.876;2023-02-25T00:28:46;9.6;96.0
22676;DHT22;12521;43.310;21.876;2023-02-25T00:33:22;9.6;96.0
22676;DHT22;12521;43.310;21.876;2023-02-25T00:37:58;9.6;96.0
22676;DHT22;12521;43.310;21.876;2023-02-25T00:42:34;9.6;96.0
22676;DHT22;12521;43.310;21.876;2023-02-25T00:47:12;9.5;96.0
22676;DHT22;12521;43.310;21.876;2023-02-25T00:51:49;9.5;96.0
22676;DHT22;12521;43.310;21.876;2023-02-25T00:56:26;9.4;96.0
22676;DHT22;12521;43.310;21.876;2023-02-25T01:01:14;9.4;96.0
22676;DHT22;12521;43.310;21.876;2023-02-25T01:05:54;9.4;96.0
22676;DHT22;12521;43.310;21.876;2023-02-25T01:10:31;9.4;96.0
22676;DHT22;12521;43.310;21.876;2023-02-25T01:15:10;9.3;96.0
22676;DHT22;12521;43.310;21.876;2023-02-25T01:19:46;9.3;96.0
22676;DHT22;12521;43.310;21.876;2023-02-25T01:24:29;9.3;96.0
22676;DHT22;12521;43.310;21.876;2023-02-25T01:29:08;9.2;96.0
22676;DHT22;12521;43.310;21.876;2023-02-25T01:33:44;9.2;96.0
22676;DHT22;12521;43.310;21.876;2023-02-25T01:38:20;9.2;96.0
22676;DHT22;12521;43.310;21.876;2023-02-25T01:42:56;9.2;96.0
22676;DHT22;12521;43.310;21.876;2023-02-25T01:47:37;9.1;96.0
22676;DHT22;12521;43.310;21.876;2023-02-25T01:52:22;9.1;96.0
22676;DHT22;12521;43.310;21.876;2023-02-25T01:57:06;9.1;96.0
22676;DHT22;12521;43.310;21.876;2023-02-25T02:01:48;9.1;96.0
22676;DHT22;12521;43.310;21.876;2023-02-25T02:06:33;9.1;96.0
22676;DHT22;12521;43.310;21.876;2023-02-25T02:11:16;9.1;96.0
22676;DHT22;12521;43.310;21.876;2023-02-25T02:16:15;9.1;96.0
22676;DHT22;12521;43.310;21.876;2023-02-25T02:21:54;9.1;96.0
22676;DHT22;12521;43.310;21.876;2023-02-25T02:27:00;9.1;96.0
22676;DHT22;12521;43.310;21.876;2023-02-25T02:32:00;9.1;96.0
22676;DHT22;12521;43.310;21.876;2023-02-25T02:37:11;9.1;96.0
22676;DHT22;12521;43.310;21.876;2023-02-25T02:42:22;9.1;96.0
22676;DHT22;12521;43.310;21.876;2023-02-25T02:47:27;9.1;96.0
22676;DHT22;12521;43.310;21.876;2023-02-25T02:52:18;9.1;96.0
22676;DHT22;12521;43.310;21.876;2023-02-25T02:57:10;9.1;96.0
22676;DHT22;12521;43.310;21.876;2023-02-25T03:01:56;9.1;96.0
22676;DHT22;12521;43.310;21.876;2023-02-25T03:06:44;9.1;96.0
22676;DHT22;12521;43.310;21.876;2023-02-25T03:11:28;9.1;96.0
22676;DHT22;12521;43.310;21.876;2023-02-25T03:16:11;9.1;96.0
22676;DHT22;12521;43.310;21.876;2023-02-25T03:21:11;9.1;96.0
22676;DHT22;12521;43.310;21.876;2023-02-25T03:26:12;9.3;96.0
22676;DHT22;12521;43.310;21.876;2023-02-25T03:31:06;9.3;96.0
22676;DHT22;12521;43.310;21.876;2023-02-25T03:35:58;9.5;96.0
22676;DHT22;12521;43.310;21.876;2023-02-25T03:40:42;9.5;96.0
22676;DHT22;12521;43.310;21.876;2023-02-25T03:45:21;9.8;96.0
22676;DHT22;12521;43.310;21.876;2023-02-25T03:50:09;9.8;96.0
22676;DHT22;12521;43.310;21.876;2023-02-25T03:54:58;9.8;96.0
22676;DHT22;12521;43.310;21.876;2023-02-25T03:59:36;10.1;96.0
22676;DHT22;12521;43.310;21.876;2023-02-25T04:04:13;10.1;96.0
22676;DHT22;12521;43.310;21.876;2023-02-25T04:08:50;10.2;96.0
22676;DHT22;12521;43.310;21.876;2023-02-25T04:13:27;10.2;96.0
22676;DHT22;12521;43.310;21.876;2023-02-25T04:18:04;10.4;96.0
22676;DHT22;12521;43.310;21.876;2023-02-25T04:22:41;10.4;96.0
22676;DHT22;12521;43.310;21.876;2023-02-25T04:27:18;10.6;96.0
22676;DHT22;12521;43.310;21.876;2023-02-25T04:31:56;10.6;96.0
22676;DHT22;12521;43.310;21.876;2023-02-25T04:36:34;10.7;96.0
22676;DHT22;12521;43.310;21.876;2023-02-25T04:41:11;10.7;96.0
22676;DHT22;12521;43.310;21.876;2023-02-25T04:45:48;10.6;96.0
22676;DHT22;12521;43.310;21.876;2023-02-25T04:50:25;10.6;96.0
22676;DHT22;12521;43.310;21.876;2023-02-25T04:55:03;10.6;96.0
22676;DHT22;12521;43.310;21.876;2023-02-25T04:59:43;10.6;96.0
22676;DHT22;12521;43.310;21.876;2023-02-25T05:04:20;10.6;96.0
22676;DHT22;12521;43.310;21.876;2023-02-25T05:08:58;10.8;96.0
22676;DHT22;12521;43.310;21.876;2023-02-25T05:13:34;10.8;96.0
22676;DHT22;12521;43.310;21.876;2023-02-25T05:18:11;11.0;96.0
22676;DHT22;12521;43.310;21.876;2023-02-25T05:22:48;11.0;96.0
22676;DHT22;12521;43.310;21.876;2023-02-25T05:27:25;11.0;96.0
22676;DHT22;12521;43.310;21.876;2023-02-25T05:32:02;11.0;96.0
22676;DHT22;12521;43.310;21.876;2023-02-25T05:36:39;11.1;96.0
22676;DHT22;12521;43.310;21.876;2023-02-25T05:41:15;11.1;96.0
22676;DHT22;12521;43.310;21.876;2023-02-25T05:45:52;11.2;96.0
22676;DHT22;12521;43.310;21.876;2023-02-25T05:50:30;11.2;96.0
22676;DHT22;12521;43.310;21.876;2023-02-25T05:55:07;11.2;96.0
22676;DHT22;12521;43.310;21.876;2023-02-25T05:59:46;11.3;96.0
22676;DHT22;12521;43.310;21.876;2023-02-25T06:04:22;11.3;96.0
22676;DHT22;12521;43.310;21.876;2023-02-25T06:08:59;11.4;96.0
22676;DHT22;12521;43.310;21.876;2023-02-25T06:13:35;11.4;96.0
22676;DHT22;12521;43.310;21.876;2023-02-25T06:18:11;11.4;96.0
22676;DHT22;12521;43.310;21.876;2023-02-25T06:22:47;11.4;96.0
22676;DHT22;12521;43.310;21.876;2023-02-25T06:27:24;11.5;96.0
22676;DHT22;12521;43.310;21.876;2023-02-25T06:32:00;11.5;96.0
22676;DHT22;12521;43.310;21.876;2023-02-25T06:36:37;11.6;96.0
22676;DHT22;12521;43.310;21.876;2023-02-25T06:41:18;11.6;96.0
22676;DHT22;12521;43.310;21.876;2023-02-25T06:45:57;11.8;96.0
22676;DHT22;12521;43.310;21.876;2023-02-25T06:50:34;11.8;96.0
22676;DHT22;12521;43.310;21.876;2023-02-25T06:55:15;11.8;96.0
22676;DHT22;12521;43.310;21.876;2023-02-25T06:59:52;11.9;96.0
22676;DHT22;12521;43.310;21.876;2023-02-25T07:04:29;11.9;96.0
22676;DHT22;12521;43.310;21.876;2023-02-25T07:09:06;12.0;96.0
22676;DHT22;12521;43.310;21.876;2023-02-25T07:13:47;12.0;96.0
22676;DHT22;12521;43.310;21.876;2023-02-25T07:18:26;12.0;96.0
22676;DHT22;12521;43.310;21.876;2023-02-25T07:23:03;12.0;96.0
22676;DHT22;12521;43.310;21.876;2023-02-25T07:27:42;12.0;96.0
22676;DHT22;12521;43.310;21.876;2023-02-25T07:32:19;12.0;96.0
22676;DHT22;12521;43.310;21.876;2023-02-25T07:36:58;12.1;96.0
22676;DHT22;12521;43.310;21.876;2023-02-25T07:41:37;12.1;96.0
22676;DHT22;12521;43.310;21.876;2023-02-25T07:46:15;12.1;96.0
22676;DHT22;12521;43.310;21.876;2023-02-25T07:50:51;12.1;96.0
22676;DHT22;12521;43.310;21.876;2023-02-25T07:55:28;12.1;96.0
22676;DHT22;12521;43.310;21.876;2023-02-25T08:00:07;12.1;96.0
22676;DHT22;12521;43.310;21.876;2023-02-25T08:04:47;12.1;96.0
22676;DHT22;12521;43.310;21.876;2023-02-25T08:09:23;12.1;96.0
22676;DHT22;12521;43.310;21.876;2023-02-25T08:14:02;12.1;96.0
22676;DHT22;12521;43.310;21.876;2023-02-25T08:18:40;12.2;96.0
22676;DHT22;12521;43.310;21.876;2023-02-25T08:23:17;12.2;96.0
22676;DHT22;12521;43.310;21.876;2023-02-25T08:27:54;12.4;96.0
22676;DHT22;12521;43.310;21.876;2023-02-25T08:32:31;12.4;96.0
22676;DHT22;12521;43.310;21.876;2023-02-25T08:37:08;12.5;96.0
22676;DHT22;12521;43.310;21.876;2023-02-25T08:41:45;12.5;96.0
22676;DHT22;12521;43.310;21.876;2023-02-25T08:46:27;12.6;96.0
22676;DHT22;12521;43.310;21.876;2023-02-25T08:51:09;12.6;96.0
22676;DHT22;12521;43.310;21.876;2023-02-25T08:55:47;12.8;96.0
22676;DHT22;12521;43.310;21.876;2023-02-25T09:00:24;12.8;96.0
22676;DHT22;12521;43.310;21.876;2023-02-25T09:05:01;12.8;96.0
22676;DHT22;12521;43.310;21.876;2023-02-25T09:09:38;13.0;96.0
22676;DHT22;12521;43.310;21.876;2023-02-25T09:14:16;13.0;96.0
22676;DHT22;12521;43.310;21.876;2023-02-25T09:18:54;13.1;96.0
22676;DHT22;12521;43.310;21.876;2023-02-25T09:23:31;13.1;96.0
22676;DHT22;12521;43.310;21.876;2023-02-25T09:28:08;13.3;96.0
22676;DHT22;12521;43.310;21.876;2023-02-25T09:32:44;13.3;96.0
22676;DHT22;12521;43.310;21.876;2023-02-25T09:37:20;13.5;96.0
22676;DHT22;12521;43.310;21.876;2023-02-25T09:42:06;13.5;96.0
22676;DHT22;12521;43.310;21.876;2023-02-25T09:47:01;13.9;96.0
22676;DHT22;12521;43.310;21.876;2023-02-25T09:52:06;13.9;96.0
22676;DHT22;12521;43.310;21.876;2023-02-25T09:57:05;14.3;96.0
22676;DHT22;12521;43.310;21.876;2023-02-25T10:02:02;14.3;96.0
22676;DHT22;12521;43.310;21.876;2023-02-25T10:07:26;14.6;96.0
22676;DHT22;12521;43.310;21.876;2023-02-25T10:12:44;14.6;96.0
22676;DHT22;12521;43.310;21.876;2023-02-25T10:18:46;15.0;96.0
22676;DHT22;12521;43.310;21.876;2023-02-25T10:24:29;15.0;96.0
22676;DHT22;12521;43.310;21.876;2023-02-25T10:29:35;15.4;96.0
22676;DHT22;12521;43.310;21.876;2023-02-25T10:34:29;15.4;96.0
22676;DHT22;12521;43.310;21.876;2023-02-25T10:39:10;15.7;95.0
22676;DHT22;12521;43.310;21.876;2023-02-25T10:43:50;15.7;95.0
22676;DHT22;12521;43.310;21.876;2023-02-25T10:48:30;15.9;95.0
22676;DHT22;12521;43.310;21.876;2023-02-25T10:53:15;15.9;95.0
22676;DHT22;12521;43.310;21.876;2023-02-25T10:57:54;16.1;94.0
22676;DHT22;12521;43.310;21.876;2023-02-25T11:02:41;16.1;94.0
22676;DHT22;12521;43.310;21.876;2023-02-25T11:07:32;16.1;94.0
22676;DHT22;12521;43.310;21.876;2023-02-25T11:12:18;16.1;94.0
22676;DHT22;12521;43.310;21.876;2023-02-25T11:17:10;16.1;93.0
22676;DHT22;12521;43.310;21.876;2023-02-25T11:21:58;16.1;93.0
22676;DHT22;12521;43.310;21.876;2023-02-25T11:26:52;16.1;93.0
22676;DHT22;12521;43.310;21.876;2023-02-25T11:31:36;16.1;93.0
22676;DHT22;12521;43.310;21.876;2023-02-25T11:36:22;16.1;93.0
22676;DHT22;12521;43.310;21.876;2023-02-25T11:41:21;16.1;93.0
22676;DHT22;12521;43.310;21.876;2023-02-25T11:46:03;16.0;93.0
22676;DHT22;12521;43.310;21.876;2023-02-25T11:51:00;16.0;93.0
22676;DHT22;12521;43.310;21.876;2023-02-25T11:56:13;16.0;93.0
22676;DHT22;12521;43.310;21.876;2023-02-25T12:01:27;16.0;93.0
22676;DHT22;12521;43.310;21.876;2023-02-25T12:07:11;16.0;93.0
22676;DHT22;12521;43.310;21.876;2023-02-25T12:13:18;16.0;93.0
22676;DHT22;12521;43.310;21.876;2023-02-25T12:19:31;16.0;93.0
22676;DHT22;12521;43.310;21.876;2023-02-25T12:27:07;15.9;94.0
22676;DHT22;12521;43.310;21.876;2023-02-25T12:33:01;15.9;94.0
22676;DHT22;12521;43.310;21.876;2023-02-25T12:39:35;15.8;94.0
22676;DHT22;12521;43.310;21.876;2023-02-25T12:45:39;15.8;94.0
22676;DHT22;12521;43.310;21.876;2023-02-25T12:52:10;15.7;94.0
22676;DHT22;12521;43.310;21.876;2023-02-25T12:57:45;15.6;94.0
22676;DHT22;12521;43.310;21.876;2023-02-25T13:03:38;15.6;94.0
22676;DHT22;12521;43.310;21.876;2023-02-25T13:09:35;15.6;95.0
22676;DHT22;12521;43.310;21.876;2023-02-25T13:15:20;15.6;95.0
22676;DHT22;12521;43.310;21.876;2023-02-25T13:20:52;15.5;96.0
22676;DHT22;12521;43.310;21.876;2023-02-25T13:26:38;15.4;96.0
22676;DHT22;12521;43.310;21.876;2023-02-25T13:32:25;15.4;96.0
22676;DHT22;12521;43.310;21.876;2023-02-25T13:37:44;15.3;96.0
22676;DHT22;12521;43.310;21.876;2023-02-25T13:43:32;15.3;96.0
22676;DHT22;12521;43.310;21.876;2023-02-25T13:49:23;15.2;96.0
22676;DHT22;12521;43.310;21.876;2023-02-25T13:56:25;15.1;96.0
22676;DHT22;12521;43.310;21.876;2023-02-25T14:01:59;15.1;96.0
22676;DHT22;12521;43.310;21.876;2023-02-25T14:08:00;15.0;96.0
22676;DHT22;12521;43.310;21.876;2023-02-25T14:14:03;15.0;96.0
22676;DHT22;12521;43.310;21.876;2023-02-25T14:19:59;15.0;96.0
22676;DHT22;12521;43.310;21.876;2023-02-25T14:25:35;15.0;96.0
22676;DHT22;12521;43.310;21.876;2023-02-25T14:31:09;15.1;96.0
22676;DHT22;12521;43.310;21.876;2023-02-25T14:36:17;15.2;96.0
22676;DHT22;12521;43.310;21.876;2023-02-25T14:42:22;15.2;96.0
22676;DHT22;12521;43.310;21.876;2023-02-25T14:48:01;15.3;95.0
22676;DHT22;12521;43.310;21.876;2023-02-25T14:53:18;15.3;95.0
22676;DHT22;12521;43.310;21.876;2023-02-25T15:01:37;15.4;94.0
22676;DHT22;12521;43.310;21.876;2023-02-25T15:10:56;15.5;93.0
22676;DHT22;12521;43.310;21.876;2023-02-25T15:18:14;15.6;92.0
22676;DHT22;12521;43.310;21.876;2023-02-25T15:23:50;15.6;92.0
22676;DHT22;12521;43.310;21.876;2023-02-25T15:28:38;15.6;91.0
22676;DHT22;12521;43.310;21.876;2023-02-25T15:33:33;15.6;91.0
22676;DHT22;12521;43.310;21.876;2023-02-25T15:38:21;15.7;91.0
22676;DHT22;12521;43.310;21.876;2023-02-25T15:43:43;15.7;91.0
22676;DHT22;12521;43.310;21.876;2023-02-25T15:48:38;15.8;90.0
22676;DHT22;12521;43.310;21.876;2023-02-25T15:53:41;15.8;90.0
22676;DHT22;12521;43.310;21.876;2023-02-25T15:58:49;15.8;90.0
22676;DHT22;12521;43.310;21.876;2023-02-25T16:03:40;15.8;90.0
22676;DHT22;12521;43.310;21.876;2023-02-25T16:08:23;15.8;89.0
22676;DHT22;12521;43.310;21.876;2023-02-25T16:13:20;15.8;89.0
22676;DHT22;12521;43.310;21.876;2023-02-25T16:18:21;15.7;89.0
22676;DHT22;12521;43.310;21.876;2023-02-25T16:23:15;15.7;89.0
22676;DHT22;12521;43.310;21.876;2023-02-25T16:28:08;15.6;89.0
22676;DHT22;12521;43.310;21.876;2023-02-25T16:33:21;15.6;89.0
22676;DHT22;12521;43.310;21.876;2023-02-25T16:38:29;15.6;89.0
22676;DHT22;12521;43.310;21.876;2023-02-25T16:43:30;15.6;89.0
22676;DHT22;12521;43.310;21.876;2023-02-25T16:48:21;15.5;89.0
22676;DHT22;12521;43.310;21.876;2023-02-25T16:53:23;15.5;89.0
22676;DHT22;12521;43.310;21.876;2023-02-25T16:58:05;15.4;90.0
22676;DHT22;12521;43.310;21.876;2023-02-25T17:03:08;15.4;90.0
22676;DHT22;12521;43.310;21.876;2023-02-25T17:07:52;15.3;91.0
22676;DHT22;12521;43.310;21.876;2023-02-25T17:12:37;15.3;91.0
22676;DHT22;12521;43.310;21.876;2023-02-25T17:17:22;15.2;91.0
22676;DHT22;12521;43.310;21.876;2023-02-25T17:22:09;15.2;91.0
22676;DHT22;12521;43.310;21.876;2023-02-25T17:26:49;15.1;92.0
22676;DHT22;12521;43.310;21.876;2023-02-25T17:31:29;15.1;92.0
22676;DHT22;12521;43.310;21.876;2023-02-25T17:36:20;15.0;92.0
22676;DHT22;12521;43.310;21.876;2023-02-25T17:41:14;15.0;92.0
22676;DHT22;12521;43.310;21.876;2023-02-25T17:45:57;15.0;92.0
22676;DHT22;12521;43.310;21.876;2023-02-25T17:51:06;15.0;92.0
22676;DHT22;12521;43.310;21.876;2023-02-25T17:55:45;15.0;92.0
22676;DHT22;12521;43.310;21.876;2023-02-25T18:00:25;14.9;91.0
22676;DHT22;12521;43.310;21.876;2023-02-25T18:05:21;14.9;91.0
22676;DHT22;12521;43.310;21.876;2023-02-25T18:10:00;15.0;90.0
22676;DHT22;12521;43.310;21.876;2023-02-25T18:15:16;15.0;90.0
22676;DHT22;12521;43.310;21.876;2023-02-25T18:20:06;15.1;90.0
22676;DHT22;12521;43.310;21.876;2023-02-25T18:25:28;15.1;90.0
22676;DHT22;12521;43.310;21.876;2023-02-25T18:30:17;15.0;89.0
22676;DHT22;12521;43.310;21.876;2023-02-25T18:35:05;15.0;89.0
22676;DHT22;12521;43.310;21.876;2023-02-25T18:39:46;15.0;89.0
22676;DHT22;12521;43.310;21.876;2023-02-25T18:44:24;15.0;89.0
22676;DHT22;12521;43.310;21.876;2023-02-25T18:49:00;15.0;88.0
22676;DHT22;12521;43.310;21.876;2023-02-25T18:53:37;15.0;88.0
22676;DHT22;12521;43.310;21.876;2023-02-25T18:58:17;15.0;88.0
22676;DHT22;12521;43.310;21.876;2023-02-25T19:02:58;15.0;88.0
22676;DHT22;12521;43.310;21.876;2023-02-25T19:07:42;14.8;89.0
22676;DHT22;12521;43.310;21.876;2023-02-25T19:12:20;14.8;89.0
22676;DHT22;12521;43.310;21.876;2023-02-25T19:17:05;14.7;89.0
22676;DHT22;12521;43.310;21.876;2023-02-25T19:21:49;14.7;89.0
22676;DHT22;12521;43.310;21.876;2023-02-25T19:26:25;14.6;90.0
22676;DHT22;12521;43.310;21.876;2023-02-25T19:31:03;14.6;90.0
22676;DHT22;12521;43.310;21.876;2023-02-25T19:35:43;14.6;90.0
22676;DHT22;12521;43.310;21.876;2023-02-25T19:40:21;14.5;91.0
22676;DHT22;12521;43.310;21.876;2023-02-25T19:44:59;14.5;91.0
22676;DHT22;12521;43.310;21.876;2023-02-25T19:49:36;14.4;91.0
22676;DHT22;12521;43.310;21.876;2023-02-25T19:54:12;14.4;91.0
22676;DHT22;12521;43.310;21.876;2023-02-25T19:58:48;14.3;92.0
22676;DHT22;12521;43.310;21.876;2023-02-25T20:03:25;14.3;92.0
22676;DHT22;12521;43.310;21.876;2023-02-25T20:08:01;14.2;92.0
22676;DHT22;12521;43.310;21.876;2023-02-25T20:12:38;14.2;92.0
22676;DHT22;12521;43.310;21.876;2023-02-25T20:17:21;14.2;93.0
22676;DHT22;12521;43.310;21.876;2023-02-25T20:21:59;14.2;93.0
22676;DHT22;12521;43.310;21.876;2023-02-25T20:26:42;14.0;93.0
22676;DHT22;12521;43.310;21.876;2023-02-25T20:31:20;14.0;93.0
22676;DHT22;12521;43.310;21.876;2023-02-25T20:36:16;14.0;93.0
22676;DHT22;12521;43.310;21.876;2023-02-25T20:41:13;13.8;94.0
22676;DHT22;12521;43.310;21.876;2023-02-25T20:45:52;13.8;94.0
22676;DHT22;12521;43.310;21.876;2023-02-25T20:50:31;13.6;94.0
22676;DHT22;12521;43.310;21.876;2023-02-25T20:55:11;13.6;94.0
22676;DHT22;12521;43.310;21.876;2023-02-25T20:59:48;13.5;95.0
22676;DHT22;12521;43.310;21.876;2023-02-25T21:04:28;13.5;95.0
22676;DHT22;12521;43.310;21.876;2023-02-25T21:09:05;13.4;95.0
22676;DHT22;12521;43.310;21.876;2023-02-25T21:13:43;13.4;95.0
22676;DHT22;12521;43.310;21.876;2023-02-25T21:18:19;13.2;96.0
22676;DHT22;12521;43.310;21.876;2023-02-25T21:22:56;13.2;96.0
22676;DHT22;12521;43.310;21.876;2023-02-25T21:27:33;13.2;95.0
22676;DHT22;12521;43.310;21.876;2023-02-25T21:32:09;13.2;95.0
22676;DHT22;12521;43.310;21.876;2023-02-25T21:36:46;13.2;95.0
22676;DHT22;12521;43.310;21.876;2023-02-25T21:41:22;13.2;95.0
22676;DHT22;12521;43.310;21.876;2023-02-25T21:46:01;13.2;95.0
22676;DHT22;12521;43.310;21.876;2023-02-25T21:50:47;13.4;95.0
22676;DHT22;12521;43.310;21.876;2023-02-25T21:55:25;13.4;95.0
22676;DHT22;12521;43.310;21.876;2023-02-25T22:00:03;13.6;94.0
22676;DHT22;12521;43.310;21.876;2023-02-25T22:04:45;13.6;94.0
22676;DHT22;12521;43.310;21.876;2023-02-25T22:09:22;13.8;95.0
22676;DHT22;12521;43.310;21.876;2023-02-25T22:13:59;13.8;95.0
22676;DHT22;12521;43.310;21.876;2023-02-25T22:18:43;14.0;96.0
22676;DHT22;12521;43.310;21.876;2023-02-25T22:23:20;14.0;96.0
22676;DHT22;12521;43.310;21.876;2023-02-25T22:27:56;14.0;96.0
22676;DHT22;12521;43.310;21.876;2023-02-25T22:32:34;14.0;96.0
22676;DHT22;12521;43.310;21.876;2023-02-25T22:37:11;14.1;96.0
22676;DHT22;12521;43.310;21.876;2023-02-25T22:41:47;14.1;96.0
22676;DHT22;12521;43.310;21.876;2023-02-25T22:46:25;14.0;96.0
22676;DHT22;12521;43.310;21.876;2023-02-25T22:51:09;14.0;96.0
22676;DHT22;12521;43.310;21.876;2023-02-25T22:55:53;14.0;96.0
22676;DHT22;12521;43.310;21.876;2023-02-25T23:00:37;14.0;96.0
22676;DHT22;12521;43.310;21.876;2023-02-25T23:05:18;14.0;96.0
22676;DHT22;12521;43.310;21.876;2023-02-25T23:09:55;14.0;96.0
22676;DHT22;12521;43.310;21.876;2023-02-25T23:14:31;14.0;96.0
22676;DHT22;12521;43.310;21.876;2023-02-25T23:19:11;14.0;96.0
22676;DHT22;12521;43.310;21.876;2023-02-25T23:23:57;14.0;96.0
22676;DHT22;12521;43.310;21.876;2023-02-25T23:28:36;14.0;96.0
22676;DHT22;12521;43.310;21.876;2023-02-25T23:33:15;14.0;96.0
22676;DHT22;12521;43.310;21.876;2023-02-25T23:37:52;14.1;96.0
22676;DHT22;12521;43.310;21.876;2023-02-25T23:42:29;14.1;96.0
22676;DHT22;12521;43.310;21.876;2023-02-25T23:47:06;14.1;96.0
22676;DHT22;12521;43.310;21.876;2023-02-25T23:51:43;14.1;96.0
22676;DHT22;12521;43.310;21.876;2023-02-25T23:56:23;14.1;96.0
